Portada
METAR-TAF:

METAR-TAF

Aeropuertos :

Parma, Italia

latitud: 44-49-17N, longitud: 010-17-41E, altitud: 50 m

Observación

El informe se hizo hace 35 minutos, a las 19:50 UTC
Viento 9 kt del este-sureste
Temperatura 17°C
Humedad 100%
Presión 996 hPa
Visibilidad: 4000 m
Cielo nuboso a una altura de 3000 ft
lluvia, neblina

METAR: LIMP 041950Z 11009KT 4000 RA BR BKN030 17/17 Q0996

Hora: 22:25 (20:25 UTC)

Pronóstico

El informe se hizo hace 3 horas y 25 minutos, a las 17:00 UTC
Pronóstico válido del 04 a las 18 UTC al 05 a las 18 UTC
Viento 5 kt con dirección variable
Visibilidad: 6000 m
Cielo nuboso a una altura de 3000 ft

TAF: LIMP 041700Z 0418/0518 VRB05KT 6000 BKN030

Observaciones y pronósticos meteorológicos de más de 4000 aeropuertos (mensajes METAR y TAF).

Los puntos amarillos y rojos representan las estaciones disponibles.

Ponga el ratón en el punto deseado para ver el nombre de la estación.

Haga clic para ver las observaciones y los pronósticos meteorológicos.

Para cambiar el mapa : haga clic en los botones verdes con una cruz de color negro para hacer un zoom, en el botón verde con un guión para alejar o en las flechas verdes para mapas adyacentes.


METAR-TAF: